sensor_id;sensor_type;location;lat;lon;timestamp;temperature;humidity
44767;DHT22;30487;48.716;9.272;2023-03-14T00:01:14;10.80;99.90
44767;DHT22;30487;48.716;9.272;2023-03-14T00:03:40;10.80;99.90
44767;DHT22;30487;48.716;9.272;2023-03-14T00:06:07;10.80;99.90
44767;DHT22;30487;48.716;9.272;2023-03-14T00:08:33;10.80;99.90
44767;DHT22;30487;48.716;9.272;2023-03-14T00:11:10;10.80;99.90
44767;DHT22;30487;48.716;9.272;2023-03-14T00:13:36;10.80;99.90
44767;DHT22;30487;48.716;9.272;2023-03-14T00:16:04;10.80;99.90
44767;DHT22;30487;48.716;9.272;2023-03-14T00:18:29;10.80;99.90
44767;DHT22;30487;48.716;9.272;2023-03-14T00:20:58;10.70;99.90
44767;DHT22;30487;48.716;9.272;2023-03-14T00:23:24;10.80;99.90
44767;DHT22;30487;48.716;9.272;2023-03-14T00:25:50;10.70;99.90
44767;DHT22;30487;48.716;9.272;2023-03-14T00:28:15;10.70;99.90
44767;DHT22;30487;48.716;9.272;2023-03-14T00:30:41;10.70;99.90
44767;DHT22;30487;48.716;9.272;2023-03-14T00:33:06;10.70;99.90
44767;DHT22;30487;48.716;9.272;2023-03-14T00:35:32;10.70;99.90
44767;DHT22;30487;48.716;9.272;2023-03-14T00:37:58;10.70;99.90
44767;DHT22;30487;48.716;9.272;2023-03-14T00:40:23;10.70;99.90
44767;DHT22;30487;48.716;9.272;2023-03-14T00:42:49;10.70;99.90
44767;DHT22;30487;48.716;9.272;2023-03-14T00:45:15;10.70;99.90
44767;DHT22;30487;48.716;9.272;2023-03-14T00:47:40;10.70;99.90
44767;DHT22;30487;48.716;9.272;2023-03-14T00:50:11;10.70;99.90
44767;DHT22;30487;48.716;9.272;2023-03-14T00:52:36;10.70;99.90
44767;DHT22;30487;48.716;9.272;2023-03-14T00:55:02;10.70;99.90
44767;DHT22;30487;48.716;9.272;2023-03-14T00:57:28;10.80;99.90
44767;DHT22;30487;48.716;9.272;2023-03-14T00:59:53;10.80;99.90
44767;DHT22;30487;48.716;9.272;2023-03-14T01:02:19;10.70;99.90
44767;DHT22;30487;48.716;9.272;2023-03-14T01:04:47;10.70;99.90
44767;DHT22;30487;48.716;9.272;2023-03-14T01:07:13;10.80;99.90
44767;DHT22;30487;48.716;9.272;2023-03-14T01:09:38;10.80;99.90
44767;DHT22;30487;48.716;9.272;2023-03-14T01:12:04;10.80;99.90
44767;DHT22;30487;48.716;9.272;2023-03-14T01:14:30;10.70;99.90
44767;DHT22;30487;48.716;9.272;2023-03-14T01:16:55;10.80;99.90
44767;DHT22;30487;48.716;9.272;2023-03-14T01:19:26;10.80;99.90
44767;DHT22;30487;48.716;9.272;2023-03-14T01:21:52;10.80;99.90
44767;DHT22;30487;48.716;9.272;2023-03-14T01:24:18;10.80;99.90
44767;DHT22;30487;48.716;9.272;2023-03-14T01:26:43;10.80;99.90
44767;DHT22;30487;48.716;9.272;2023-03-14T01:29:09;10.70;99.90
44767;DHT22;30487;48.716;9.272;2023-03-14T01:31:34;10.80;99.90
44767;DHT22;30487;48.716;9.272;2023-03-14T01:34:00;10.80;99.90
44767;DHT22;30487;48.716;9.272;2023-03-14T01:36:26;10.80;99.90
44767;DHT22;30487;48.716;9.272;2023-03-14T01:38:51;10.80;99.90
44767;DHT22;30487;48.716;9.272;2023-03-14T01:41:20;10.80;99.90
44767;DHT22;30487;48.716;9.272;2023-03-14T01:43:46;10.80;99.90
44767;DHT22;30487;48.716;9.272;2023-03-14T01:54:17;10.80;99.90
44767;DHT22;30487;48.716;9.272;2023-03-14T01:56:48;10.70;99.90
44767;DHT22;30487;48.716;9.272;2023-03-14T01:59:15;10.70;99.90
44767;DHT22;30487;48.716;9.272;2023-03-14T02:01:43;10.70;99.90
44767;DHT22;30487;48.716;9.272;2023-03-14T02:04:10;10.70;99.90
44767;DHT22;30487;48.716;9.272;2023-03-14T02:07:06;10.80;99.90
44767;DHT22;30487;48.716;9.272;2023-03-14T02:09:34;10.70;99.90
44767;DHT22;30487;48.716;9.272;2023-03-14T02:12:00;10.60;99.90
44767;DHT22;30487;48.716;9.272;2023-03-14T02:14:32;10.70;99.90
44767;DHT22;30487;48.716;9.272;2023-03-14T02:16:58;10.60;99.90
44767;DHT22;30487;48.716;9.272;2023-03-14T02:20:21;10.60;99.90
44767;DHT22;30487;48.716;9.272;2023-03-14T02:22:16;10.60;99.90
44767;DHT22;30487;48.716;9.272;2023-03-14T02:25:16;10.60;99.90
44767;DHT22;30487;48.716;9.272;2023-03-14T02:27:45;10.60;99.90
44767;DHT22;30487;48.716;9.272;2023-03-14T02:30:18;10.50;99.90
44767;DHT22;30487;48.716;9.272;2023-03-14T02:32:49;10.60;99.90
44767;DHT22;30487;48.716;9.272;2023-03-14T02:35:22;10.50;99.90
44767;DHT22;30487;48.716;9.272;2023-03-14T02:38:36;10.50;99.90
44767;DHT22;30487;48.716;9.272;2023-03-14T02:40:41;10.50;99.90
44767;DHT22;30487;48.716;9.272;2023-03-14T02:43:06;10.50;99.90
44767;DHT22;30487;48.716;9.272;2023-03-14T02:45:37;10.50;99.90
44767;DHT22;30487;48.716;9.272;2023-03-14T02:48:11;10.50;99.90
44767;DHT22;30487;48.716;9.272;2023-03-14T02:50:39;10.50;99.90
44767;DHT22;30487;48.716;9.272;2023-03-14T02:53:05;10.50;99.90
44767;DHT22;30487;48.716;9.272;2023-03-14T02:55:31;10.50;99.90
44767;DHT22;30487;48.716;9.272;2023-03-14T02:57:56;10.50;99.90
44767;DHT22;30487;48.716;9.272;2023-03-14T03:00:22;10.40;99.90
44767;DHT22;30487;48.716;9.272;2023-03-14T03:02:48;10.40;99.90
44767;DHT22;30487;48.716;9.272;2023-03-14T03:05:14;10.50;99.90
44767;DHT22;30487;48.716;9.272;2023-03-14T03:07:39;10.40;99.90
44767;DHT22;30487;48.716;9.272;2023-03-14T03:10:05;10.40;99.90
44767;DHT22;30487;48.716;9.272;2023-03-14T03:12:31;10.40;99.90
44767;DHT22;30487;48.716;9.272;2023-03-14T03:14:57;10.40;99.90
44767;DHT22;30487;48.716;9.272;2023-03-14T03:17:22;10.40;99.90
44767;DHT22;30487;48.716;9.272;2023-03-14T03:19:48;10.40;99.90
44767;DHT22;30487;48.716;9.272;2023-03-14T03:22:13;10.40;99.90
44767;DHT22;30487;48.716;9.272;2023-03-14T03:24:39;10.40;99.90
44767;DHT22;30487;48.716;9.272;2023-03-14T03:27:05;10.40;99.90
44767;DHT22;30487;48.716;9.272;2023-03-14T03:29:30;10.40;99.90
44767;DHT22;30487;48.716;9.272;2023-03-14T03:31:56;10.40;99.90
44767;DHT22;30487;48.716;9.272;2023-03-14T03:34:21;10.40;99.90
44767;DHT22;30487;48.716;9.272;2023-03-14T03:36:47;10.30;99.90
44767;DHT22;30487;48.716;9.272;2023-03-14T03:39:12;10.30;99.90
44767;DHT22;30487;48.716;9.272;2023-03-14T03:41:38;10.30;99.90
44767;DHT22;30487;48.716;9.272;2023-03-14T03:44:04;10.30;99.90
44767;DHT22;30487;48.716;9.272;2023-03-14T03:46:31;10.30;99.90
44767;DHT22;30487;48.716;9.272;2023-03-14T03:48:58;10.30;99.90
44767;DHT22;30487;48.716;9.272;2023-03-14T03:51:24;10.30;99.90
44767;DHT22;30487;48.716;9.272;2023-03-14T03:53:50;10.30;99.90
44767;DHT22;30487;48.716;9.272;2023-03-14T03:56:16;10.30;99.90
44767;DHT22;30487;48.716;9.272;2023-03-14T03:58:41;10.30;99.90
44767;DHT22;30487;48.716;9.272;2023-03-14T04:01:08;10.30;99.90
44767;DHT22;30487;48.716;9.272;2023-03-14T04:03:34;10.20;99.90
44767;DHT22;30487;48.716;9.272;2023-03-14T04:06:18;10.20;99.90
44767;DHT22;30487;48.716;9.272;2023-03-14T04:08:44;10.20;99.90
44767;DHT22;30487;48.716;9.272;2023-03-14T04:11:10;10.20;99.90
44767;DHT22;30487;48.716;9.272;2023-03-14T04:13:35;10.20;99.90
44767;DHT22;30487;48.716;9.272;2023-03-14T04:16:01;10.20;99.90
44767;DHT22;30487;48.716;9.272;2023-03-14T04:18:27;10.20;99.90
44767;DHT22;30487;48.716;9.272;2023-03-14T04:20:56;10.20;99.90
44767;DHT22;30487;48.716;9.272;2023-03-14T04:23:23;10.20;99.90
44767;DHT22;30487;48.716;9.272;2023-03-14T04:25:50;10.10;99.90
44767;DHT22;30487;48.716;9.272;2023-03-14T04:28:16;10.10;99.90
44767;DHT22;30487;48.716;9.272;2023-03-14T04:30:42;10.10;99.90
44767;DHT22;30487;48.716;9.272;2023-03-14T04:33:07;10.10;99.90
44767;DHT22;30487;48.716;9.272;2023-03-14T04:35:34;10.10;99.90
44767;DHT22;30487;48.716;9.272;2023-03-14T04:38:00;10.10;99.90
44767;DHT22;30487;48.716;9.272;2023-03-14T04:40:26;10.10;99.90
44767;DHT22;30487;48.716;9.272;2023-03-14T04:42:51;10.10;99.90
44767;DHT22;30487;48.716;9.272;2023-03-14T04:45:17;10.10;99.90
44767;DHT22;30487;48.716;9.272;2023-03-14T04:47:43;10.00;99.90
44767;DHT22;30487;48.716;9.272;2023-03-14T04:50:09;10.10;99.90
44767;DHT22;30487;48.716;9.272;2023-03-14T04:52:35;10.10;99.90
44767;DHT22;30487;48.716;9.272;2023-03-14T04:55:01;10.10;99.90
44767;DHT22;30487;48.716;9.272;2023-03-14T04:57:27;10.00;99.90
44767;DHT22;30487;48.716;9.272;2023-03-14T04:59:52;10.00;99.90
44767;DHT22;30487;48.716;9.272;2023-03-14T05:02:18;10.00;99.90
44767;DHT22;30487;48.716;9.272;2023-03-14T05:04:43;10.00;99.90
44767;DHT22;30487;48.716;9.272;2023-03-14T05:07:09;10.00;99.90
44767;DHT22;30487;48.716;9.272;2023-03-14T05:09:34;10.00;99.90
44767;DHT22;30487;48.716;9.272;2023-03-14T05:12:00;10.00;99.90
44767;DHT22;30487;48.716;9.272;2023-03-14T05:14:25;9.90;99.90
44767;DHT22;30487;48.716;9.272;2023-03-14T05:16:51;9.90;99.90
44767;DHT22;30487;48.716;9.272;2023-03-14T05:19:17;9.90;99.90
44767;DHT22;30487;48.716;9.272;2023-03-14T05:21:42;9.90;99.90
44767;DHT22;30487;48.716;9.272;2023-03-14T05:24:08;9.90;99.90
44767;DHT22;30487;48.716;9.272;2023-03-14T05:26:33;10.00;99.90
44767;DHT22;30487;48.716;9.272;2023-03-14T05:28:59;10.00;99.90
44767;DHT22;30487;48.716;9.272;2023-03-14T05:31:24;10.00;99.90
44767;DHT22;30487;48.716;9.272;2023-03-14T05:33:50;10.00;99.90
44767;DHT22;30487;48.716;9.272;2023-03-14T05:36:15;10.00;99.90
44767;DHT22;30487;48.716;9.272;2023-03-14T05:38:41;9.90;99.90
44767;DHT22;30487;48.716;9.272;2023-03-14T05:41:07;9.90;99.90
44767;DHT22;30487;48.716;9.272;2023-03-14T05:43:33;10.00;99.90
44767;DHT22;30487;48.716;9.272;2023-03-14T05:45:58;10.00;99.90
44767;DHT22;30487;48.716;9.272;2023-03-14T05:48:24;10.00;99.90
44767;DHT22;30487;48.716;9.272;2023-03-14T05:50:55;9.90;99.90
44767;DHT22;30487;48.716;9.272;2023-03-14T05:53:21;10.00;99.90
44767;DHT22;30487;48.716;9.272;2023-03-14T05:55:46;9.90;99.90
44767;DHT22;30487;48.716;9.272;2023-03-14T05:58:12;10.00;99.90
44767;DHT22;30487;48.716;9.272;2023-03-14T06:00:37;10.00;99.90
44767;DHT22;30487;48.716;9.272;2023-03-14T06:03:03;10.00;99.90
44767;DHT22;30487;48.716;9.272;2023-03-14T06:05:28;10.00;99.90
44767;DHT22;30487;48.716;9.272;2023-03-14T06:07:54;10.00;99.90
44767;DHT22;30487;48.716;9.272;2023-03-14T06:10:20;10.00;99.90
44767;DHT22;30487;48.716;9.272;2023-03-14T06:12:45;10.00;99.90
44767;DHT22;30487;48.716;9.272;2023-03-14T06:15:11;10.10;99.90
44767;DHT22;30487;48.716;9.272;2023-03-14T06:17:36;10.10;99.90
44767;DHT22;30487;48.716;9.272;2023-03-14T06:20:02;10.10;99.90
44767;DHT22;30487;48.716;9.272;2023-03-14T06:22:28;10.10;99.90
44767;DHT22;30487;48.716;9.272;2023-03-14T06:24:53;10.00;99.90
44767;DHT22;30487;48.716;9.272;2023-03-14T06:27:19;10.00;99.90
44767;DHT22;30487;48.716;9.272;2023-03-14T06:29:44;10.00;99.90
44767;DHT22;30487;48.716;9.272;2023-03-14T06:32:10;10.00;99.90
44767;DHT22;30487;48.716;9.272;2023-03-14T06:34:36;10.00;99.90
44767;DHT22;30487;48.716;9.272;2023-03-14T06:37:01;9.90;99.90
44767;DHT22;30487;48.716;9.272;2023-03-14T06:39:27;10.00;99.90
44767;DHT22;30487;48.716;9.272;2023-03-14T06:41:52;10.00;99.90
44767;DHT22;30487;48.716;9.272;2023-03-14T06:44:18;10.00;99.90
44767;DHT22;30487;48.716;9.272;2023-03-14T06:46:43;10.00;99.90
44767;DHT22;30487;48.716;9.272;2023-03-14T06:49:09;10.00;99.90
44767;DHT22;30487;48.716;9.272;2023-03-14T06:51:35;10.00;99.90
44767;DHT22;30487;48.716;9.272;2023-03-14T06:54:00;10.10;99.90
44767;DHT22;30487;48.716;9.272;2023-03-14T06:56:26;10.20;99.90
44767;DHT22;30487;48.716;9.272;2023-03-14T06:58:51;10.20;99.90
44767;DHT22;30487;48.716;9.272;2023-03-14T07:01:23;10.20;99.90
44767;DHT22;30487;48.716;9.272;2023-03-14T07:03:49;10.50;99.90
44767;DHT22;30487;48.716;9.272;2023-03-14T07:06:15;10.60;99.90
44767;DHT22;30487;48.716;9.272;2023-03-14T07:08:41;10.80;99.90
44767;DHT22;30487;48.716;9.272;2023-03-14T07:11:07;10.80;99.90
44767;DHT22;30487;48.716;9.272;2023-03-14T07:13:33;10.80;99.90
44767;DHT22;30487;48.716;9.272;2023-03-14T07:15:58;10.80;99.90
44767;DHT22;30487;48.716;9.272;2023-03-14T07:18:24;10.80;99.90
44767;DHT22;30487;48.716;9.272;2023-03-14T07:20:49;10.80;99.90
44767;DHT22;30487;48.716;9.272;2023-03-14T07:23:15;10.80;99.90
44767;DHT22;30487;48.716;9.272;2023-03-14T07:25:41;10.80;99.90
44767;DHT22;30487;48.716;9.272;2023-03-14T07:28:07;10.80;99.90
44767;DHT22;30487;48.716;9.272;2023-03-14T07:30:32;10.80;99.90
44767;DHT22;30487;48.716;9.272;2023-03-14T07:32:58;10.80;99.90
44767;DHT22;30487;48.716;9.272;2023-03-14T07:35:23;10.90;99.90
44767;DHT22;30487;48.716;9.272;2023-03-14T07:37:49;11.00;99.90
44767;DHT22;30487;48.716;9.272;2023-03-14T07:40:14;11.10;99.90
44767;DHT22;30487;48.716;9.272;2023-03-14T07:42:41;11.30;99.90
44767;DHT22;30487;48.716;9.272;2023-03-14T07:45:08;11.30;99.90
44767;DHT22;30487;48.716;9.272;2023-03-14T07:47:34;11.40;99.90
44767;DHT22;30487;48.716;9.272;2023-03-14T07:50:00;11.40;99.90
44767;DHT22;30487;48.716;9.272;2023-03-14T07:52:26;11.40;99.90
44767;DHT22;30487;48.716;9.272;2023-03-14T07:54:51;11.50;99.90
44767;DHT22;30487;48.716;9.272;2023-03-14T07:57:17;11.70;99.90
44767;DHT22;30487;48.716;9.272;2023-03-14T07:59:43;12.00;99.90
44767;DHT22;30487;48.716;9.272;2023-03-14T08:02:11;12.40;99.90
44767;DHT22;30487;48.716;9.272;2023-03-14T08:04:37;12.90;99.90
44767;DHT22;30487;48.716;9.272;2023-03-14T08:07:04;13.30;99.90
44767;DHT22;30487;48.716;9.272;2023-03-14T08:09:29;13.60;99.90
44767;DHT22;30487;48.716;9.272;2023-03-14T08:11:55;13.70;99.90
44767;DHT22;30487;48.716;9.272;2023-03-14T08:14:20;13.60;99.90
44767;DHT22;30487;48.716;9.272;2023-03-14T08:16:49;13.60;99.90
44767;DHT22;30487;48.716;9.272;2023-03-14T08:19:15;13.40;99.90
44767;DHT22;30487;48.716;9.272;2023-03-14T08:21:40;13.50;99.90
44767;DHT22;30487;48.716;9.272;2023-03-14T08:24:06;13.70;99.90
44767;DHT22;30487;48.716;9.272;2023-03-14T08:26:32;13.90;99.90
44767;DHT22;30487;48.716;9.272;2023-03-14T08:28:57;14.00;99.90
44767;DHT22;30487;48.716;9.272;2023-03-14T08:31:23;14.10;99.90
44767;DHT22;30487;48.716;9.272;2023-03-14T08:33:48;14.10;99.90
44767;DHT22;30487;48.716;9.272;2023-03-14T08:36:14;14.20;99.90
44767;DHT22;30487;48.716;9.272;2023-03-14T08:38:40;14.40;99.90
44767;DHT22;30487;48.716;9.272;2023-03-14T08:41:08;14.70;99.90
44767;DHT22;30487;48.716;9.272;2023-03-14T08:43:33;14.80;99.90
44767;DHT22;30487;48.716;9.272;2023-03-14T08:46:00;14.80;99.90
44767;DHT22;30487;48.716;9.272;2023-03-14T08:48:26;14.60;99.90
44767;DHT22;30487;48.716;9.272;2023-03-14T08:50:52;14.40;99.90
44767;DHT22;30487;48.716;9.272;2023-03-14T08:53:18;14.70;99.10
44767;DHT22;30487;48.716;9.272;2023-03-14T08:55:44;15.00;98.50
44767;DHT22;30487;48.716;9.272;2023-03-14T08:58:09;15.30;97.40
44767;DHT22;30487;48.716;9.272;2023-03-14T09:00:35;15.30;97.20
44767;DHT22;30487;48.716;9.272;2023-03-14T09:03:01;15.00;96.70
44767;DHT22;30487;48.716;9.272;2023-03-14T09:05:26;14.90;97.20
44767;DHT22;30487;48.716;9.272;2023-03-14T09:07:52;15.10;97.00
44767;DHT22;30487;48.716;9.272;2023-03-14T09:10:17;15.20;96.90
44767;DHT22;30487;48.716;9.272;2023-03-14T09:12:43;15.20;96.90
44767;DHT22;30487;48.716;9.272;2023-03-14T09:15:09;15.20;96.80
44767;DHT22;30487;48.716;9.272;2023-03-14T09:17:35;15.30;97.70
44767;DHT22;30487;48.716;9.272;2023-03-14T09:20:01;15.30;97.40
44767;DHT22;30487;48.716;9.272;2023-03-14T09:22:26;15.30;97.90
44767;DHT22;30487;48.716;9.272;2023-03-14T09:24:52;15.30;97.80
44767;DHT22;30487;48.716;9.272;2023-03-14T09:27:17;15.50;97.50
44767;DHT22;30487;48.716;9.272;2023-03-14T09:29:43;15.60;97.40
44767;DHT22;30487;48.716;9.272;2023-03-14T09:32:08;15.80;96.90
44767;DHT22;30487;48.716;9.272;2023-03-14T09:34:34;16.00;96.80
44767;DHT22;30487;48.716;9.272;2023-03-14T09:37:00;16.30;96.20
44767;DHT22;30487;48.716;9.272;2023-03-14T09:39:25;16.50;96.30
44767;DHT22;30487;48.716;9.272;2023-03-14T09:41:52;16.70;95.30
44767;DHT22;30487;48.716;9.272;2023-03-14T09:44:24;16.00;94.80
44767;DHT22;30487;48.716;9.272;2023-03-14T09:46:53;15.60;96.10
44767;DHT22;30487;48.716;9.272;2023-03-14T09:49:23;15.10;96.10
44767;DHT22;30487;48.716;9.272;2023-03-14T09:51:53;14.70;96.50
44767;DHT22;30487;48.716;9.272;2023-03-14T09:54:31;14.30;97.00
44767;DHT22;30487;48.716;9.272;2023-03-14T09:56:57;14.00;97.70
44767;DHT22;30487;48.716;9.272;2023-03-14T09:59:22;13.90;98.00
44767;DHT22;30487;48.716;9.272;2023-03-14T10:01:48;13.70;98.30
44767;DHT22;30487;48.716;9.272;2023-03-14T10:04:17;13.50;98.40
44767;DHT22;30487;48.716;9.272;2023-03-14T10:06:46;13.30;98.70
44767;DHT22;30487;48.716;9.272;2023-03-14T10:09:20;13.20;99.20
44767;DHT22;30487;48.716;9.272;2023-03-14T10:11:52;13.10;99.40
44767;DHT22;30487;48.716;9.272;2023-03-14T10:14:33;13.00;99.80
44767;DHT22;30487;48.716;9.272;2023-03-14T10:17:07;13.00;99.90
44767;DHT22;30487;48.716;9.272;2023-03-14T10:19:33;13.10;99.90
44767;DHT22;30487;48.716;9.272;2023-03-14T10:22:02;13.30;99.90
44767;DHT22;30487;48.716;9.272;2023-03-14T10:24:33;13.40;99.80
44767;DHT22;30487;48.716;9.272;2023-03-14T10:27:03;14.20;99.20
44767;DHT22;30487;48.716;9.272;2023-03-14T10:29:31;15.00;97.80
44767;DHT22;30487;48.716;9.272;2023-03-14T10:32:00;15.50;96.90
44767;DHT22;30487;48.716;9.272;2023-03-14T10:34:30;15.70;96.40
44767;DHT22;30487;48.716;9.272;2023-03-14T10:36:59;15.50;95.60
44767;DHT22;30487;48.716;9.272;2023-03-14T10:42:40;14.90;96.00
44767;DHT22;30487;48.716;9.272;2023-03-14T10:47:51;14.20;97.40
44767;DHT22;30487;48.716;9.272;2023-03-14T10:52:49;13.90;97.90
44767;DHT22;30487;48.716;9.272;2023-03-14T10:55:16;13.70;98.40
44767;DHT22;30487;48.716;9.272;2023-03-14T10:57:43;13.60;98.90
44767;DHT22;30487;48.716;9.272;2023-03-14T11:00:15;13.60;99.10
44767;DHT22;30487;48.716;9.272;2023-03-14T11:02:59;13.50;98.80
44767;DHT22;30487;48.716;9.272;2023-03-14T11:05:51;13.40;99.00
44767;DHT22;30487;48.716;9.272;2023-03-14T11:13:58;13.10;99.90
44767;DHT22;30487;48.716;9.272;2023-03-14T11:17:16;13.10;99.90
44767;DHT22;30487;48.716;9.272;2023-03-14T11:27:44;12.80;99.90
44767;DHT22;30487;48.716;9.272;2023-03-14T11:30:19;12.70;99.90
44767;DHT22;30487;48.716;9.272;2023-03-14T11:33:13;12.70;99.90
44767;DHT22;30487;48.716;9.272;2023-03-14T11:36:08;12.60;99.90
44767;DHT22;30487;48.716;9.272;2023-03-14T11:41:01;12.40;99.90
44767;DHT22;30487;48.716;9.272;2023-03-14T11:43:35;12.30;99.90
44767;DHT22;30487;48.716;9.272;2023-03-14T11:46:22;12.30;99.90
44767;DHT22;30487;48.716;9.272;2023-03-14T11:51:24;12.20;99.90
44767;DHT22;30487;48.716;9.272;2023-03-14T11:59:23;12.10;99.90
44767;DHT22;30487;48.716;9.272;2023-03-14T12:04:42;12.20;99.90
44767;DHT22;30487;48.716;9.272;2023-03-14T12:07:28;12.20;99.90
44767;DHT22;30487;48.716;9.272;2023-03-14T12:09:55;12.10;99.90
44767;DHT22;30487;48.716;9.272;2023-03-14T12:12:24;12.10;99.90
44767;DHT22;30487;48.716;9.272;2023-03-14T12:15:00;12.20;99.90
44767;DHT22;30487;48.716;9.272;2023-03-14T12:17:38;12.20;99.90
44767;DHT22;30487;48.716;9.272;2023-03-14T12:20:22;12.10;99.90
44767;DHT22;30487;48.716;9.272;2023-03-14T12:22:54;12.00;99.90
44767;DHT22;30487;48.716;9.272;2023-03-14T12:25:26;11.90;99.90
44767;DHT22;30487;48.716;9.272;2023-03-14T12:30:36;11.90;99.90
44767;DHT22;30487;48.716;9.272;2023-03-14T12:35:46;12.30;99.90
44767;DHT22;30487;48.716;9.272;2023-03-14T12:38:41;12.40;99.90
44767;DHT22;30487;48.716;9.272;2023-03-14T12:42:09;12.40;99.90
44767;DHT22;30487;48.716;9.272;2023-03-14T12:46:54;12.40;99.90
44767;DHT22;30487;48.716;9.272;2023-03-14T12:49:19;12.70;99.90
44767;DHT22;30487;48.716;9.272;2023-03-14T12:51:45;12.70;99.90
44767;DHT22;30487;48.716;9.272;2023-03-14T12:59:45;13.20;98.90
44767;DHT22;30487;48.716;9.272;2023-03-14T13:02:26;13.60;98.50
44767;DHT22;30487;48.716;9.272;2023-03-14T13:05:00;14.10;95.40
44767;DHT22;30487;48.716;9.272;2023-03-14T13:10:48;14.90;91.90
44767;DHT22;30487;48.716;9.272;2023-03-14T13:13:19;15.20;87.20
44767;DHT22;30487;48.716;9.272;2023-03-14T13:15:47;15.30;85.50
44767;DHT22;30487;48.716;9.272;2023-03-14T13:18:18;15.00;83.00
44767;DHT22;30487;48.716;9.272;2023-03-14T13:20:55;14.30;83.30
44767;DHT22;30487;48.716;9.272;2023-03-14T13:23:24;13.90;83.90
44767;DHT22;30487;48.716;9.272;2023-03-14T13:25:51;13.50;84.20
44767;DHT22;30487;48.716;9.272;2023-03-14T13:28:17;13.40;83.10
44767;DHT22;30487;48.716;9.272;2023-03-14T13:30:45;13.40;84.60
44767;DHT22;30487;48.716;9.272;2023-03-14T13:33:22;13.30;80.40
44767;DHT22;30487;48.716;9.272;2023-03-14T13:36:01;13.00;80.60
44767;DHT22;30487;48.716;9.272;2023-03-14T13:38:32;12.80;80.30
44767;DHT22;30487;48.716;9.272;2023-03-14T13:40:59;12.50;81.40
44767;DHT22;30487;48.716;9.272;2023-03-14T13:43:34;12.30;80.60
44767;DHT22;30487;48.716;9.272;2023-03-14T13:46:21;12.10;81.40
44767;DHT22;30487;48.716;9.272;2023-03-14T13:48:50;12.00;81.60
44767;DHT22;30487;48.716;9.272;2023-03-14T13:51:18;11.80;81.30
44767;DHT22;30487;48.716;9.272;2023-03-14T13:53:53;11.60;82.70
44767;DHT22;30487;48.716;9.272;2023-03-14T13:56:19;11.50;82.10
44767;DHT22;30487;48.716;9.272;2023-03-14T13:58:46;11.30;83.40
44767;DHT22;30487;48.716;9.272;2023-03-14T14:01:17;11.30;83.80
44767;DHT22;30487;48.716;9.272;2023-03-14T14:03:49;11.30;84.90
44767;DHT22;30487;48.716;9.272;2023-03-14T14:08:59;11.40;80.80
44767;DHT22;30487;48.716;9.272;2023-03-14T14:11:49;11.40;80.60
44767;DHT22;30487;48.716;9.272;2023-03-14T14:14:30;11.30;79.00
44767;DHT22;30487;48.716;9.272;2023-03-14T14:16:58;11.10;80.30
44767;DHT22;30487;48.716;9.272;2023-03-14T14:19:28;11.00;80.80
44767;DHT22;30487;48.716;9.272;2023-03-14T14:21:55;10.90;77.60
44767;DHT22;30487;48.716;9.272;2023-03-14T14:24:24;10.70;77.20
44767;DHT22;30487;48.716;9.272;2023-03-14T14:27:03;10.60;77.70
44767;DHT22;30487;48.716;9.272;2023-03-14T14:29:33;10.50;76.60
44767;DHT22;30487;48.716;9.272;2023-03-14T14:32:17;10.40;76.80
44767;DHT22;30487;48.716;9.272;2023-03-14T14:34:44;10.50;78.20
44767;DHT22;30487;48.716;9.272;2023-03-14T14:37:33;10.50;77.20
44767;DHT22;30487;48.716;9.272;2023-03-14T14:40:07;10.40;76.20
44767;DHT22;30487;48.716;9.272;2023-03-14T14:42:33;10.50;77.20
44767;DHT22;30487;48.716;9.272;2023-03-14T14:44:59;10.40;77.60
44767;DHT22;30487;48.716;9.272;2023-03-14T14:47:28;10.50;78.30
44767;DHT22;30487;48.716;9.272;2023-03-14T14:49:55;10.50;78.80
44767;DHT22;30487;48.716;9.272;2023-03-14T14:52:44;10.40;78.90
44767;DHT22;30487;48.716;9.272;2023-03-14T14:55:19;10.40;79.40
44767;DHT22;30487;48.716;9.272;2023-03-14T14:57:51;10.20;77.50
44767;DHT22;30487;48.716;9.272;2023-03-14T15:00:22;10.20;78.10
44767;DHT22;30487;48.716;9.272;2023-03-14T15:02:51;10.20;78.20
44767;DHT22;30487;48.716;9.272;2023-03-14T15:05:26;10.20;78.70
44767;DHT22;30487;48.716;9.272;2023-03-14T15:07:52;10.10;79.40
44767;DHT22;30487;48.716;9.272;2023-03-14T15:10:20;10.20;79.30
44767;DHT22;30487;48.716;9.272;2023-03-14T15:12:46;10.20;80.00
44767;DHT22;30487;48.716;9.272;2023-03-14T15:15:16;10.30;78.30
44767;DHT22;30487;48.716;9.272;2023-03-14T15:17:42;10.30;79.40
44767;DHT22;30487;48.716;9.272;2023-03-14T15:20:13;10.40;78.80
44767;DHT22;30487;48.716;9.272;2023-03-14T15:22:40;10.60;78.20
44767;DHT22;30487;48.716;9.272;2023-03-14T15:25:07;10.70;79.30
44767;DHT22;30487;48.716;9.272;2023-03-14T15:27:33;10.70;78.90
44767;DHT22;30487;48.716;9.272;2023-03-14T15:29:59;10.80;78.70
44767;DHT22;30487;48.716;9.272;2023-03-14T15:32:26;10.90;78.10
44767;DHT22;30487;48.716;9.272;2023-03-14T15:34:56;11.00;77.80
44767;DHT22;30487;48.716;9.272;2023-03-14T15:37:21;11.10;77.60
44767;DHT22;30487;48.716;9.272;2023-03-14T15:39:47;11.20;76.80
44767;DHT22;30487;48.716;9.272;2023-03-14T15:42:13;11.20;76.60
44767;DHT22;30487;48.716;9.272;2023-03-14T15:44:38;11.20;76.00
44767;DHT22;30487;48.716;9.272;2023-03-14T15:47:05;11.20;76.40
44767;DHT22;30487;48.716;9.272;2023-03-14T15:49:31;11.10;76.90
44767;DHT22;30487;48.716;9.272;2023-03-14T15:51:57;11.10;78.20
44767;DHT22;30487;48.716;9.272;2023-03-14T15:54:23;11.10;77.70
44767;DHT22;30487;48.716;9.272;2023-03-14T15:56:48;11.10;77.10
44767;DHT22;30487;48.716;9.272;2023-03-14T15:59:14;11.00;77.40
44767;DHT22;30487;48.716;9.272;2023-03-14T16:01:40;10.80;77.50
44767;DHT22;30487;48.716;9.272;2023-03-14T16:04:05;10.70;78.00
44767;DHT22;30487;48.716;9.272;2023-03-14T16:06:31;10.60;78.60
44767;DHT22;30487;48.716;9.272;2023-03-14T16:08:57;10.50;78.20
44767;DHT22;30487;48.716;9.272;2023-03-14T16:11:23;10.40;78.60
44767;DHT22;30487;48.716;9.272;2023-03-14T16:13:49;10.30;79.50
44767;DHT22;30487;48.716;9.272;2023-03-14T16:16:14;10.40;79.70
44767;DHT22;30487;48.716;9.272;2023-03-14T16:18:40;10.20;79.30
44767;DHT22;30487;48.716;9.272;2023-03-14T16:21:10;10.20;79.70
44767;DHT22;30487;48.716;9.272;2023-03-14T16:23:36;10.20;82.80
44767;DHT22;30487;48.716;9.272;2023-03-14T16:26:13;10.30;81.70
44767;DHT22;30487;48.716;9.272;2023-03-14T16:28:40;10.30;80.30
44767;DHT22;30487;48.716;9.272;2023-03-14T16:31:09;10.30;80.10
44767;DHT22;30487;48.716;9.272;2023-03-14T16:33:37;10.40;80.80
44767;DHT22;30487;48.716;9.272;2023-03-14T16:36:04;10.50;80.30
44767;DHT22;30487;48.716;9.272;2023-03-14T16:38:36;10.50;81.10
44767;DHT22;30487;48.716;9.272;2023-03-14T16:41:04;10.40;80.70
44767;DHT22;30487;48.716;9.272;2023-03-14T16:43:30;10.40;80.30